createdAt,value
2024-03-27T00:00:25.571Z,92757.00
2024-03-27T00:01:25.711Z,92754.00
2024-03-27T00:02:25.847Z,92750.00
2024-03-27T00:03:26.041Z,92748.00
2024-03-27T00:04:26.202Z,92750.00
2024-03-27T00:05:26.319Z,92750.00
2024-03-27T00:06:26.486Z,92747.00
2024-03-27T00:07:26.678Z,92746.00
2024-03-27T00:08:26.833Z,92743.00
2024-03-27T00:09:27.005Z,92744.00
2024-03-27T00:10:29.001Z,92742.00
2024-03-27T00:11:27.166Z,92739.00
2024-03-27T00:12:27.171Z,92737.00
2024-03-27T00:13:27.172Z,92737.00
2024-03-27T00:14:27.207Z,92738.00
2024-03-27T00:15:27.158Z,92737.00
2024-03-27T00:16:27.161Z,92736.00
2024-03-27T00:17:27.180Z,92731.00
2024-03-27T00:18:27.186Z,92729.00
2024-03-27T00:19:27.171Z,92724.00
2024-03-27T00:20:27.186Z,92724.00
2024-03-27T00:21:28.969Z,92724.00
2024-03-27T00:22:27.192Z,92726.00
2024-03-27T00:23:27.198Z,92724.00
2024-03-27T00:24:27.212Z,92725.00
2024-03-27T00:25:27.223Z,92724.00
2024-03-27T00:26:27.156Z,92717.00
2024-03-27T00:27:27.175Z,92717.00
2024-03-27T00:28:27.168Z,92716.00
2024-03-27T00:29:27.186Z,92713.00
2024-03-27T00:30:27.202Z,92708.00
2024-03-27T00:31:27.169Z,92708.00
2024-03-27T00:32:27.190Z,92705.00
2024-03-27T00:33:27.177Z,92699.00
2024-03-27T00:34:27.215Z,92694.00
2024-03-27T00:35:27.186Z,92692.00
2024-03-27T00:36:27.349Z,92690.00
2024-03-27T00:37:27.463Z,92691.00
2024-03-27T00:38:27.586Z,92685.00
2024-03-27T00:39:27.859Z,92684.00
2024-03-27T00:40:27.931Z,92682.00
2024-03-27T00:41:28.060Z,92684.00
2024-03-27T00:42:28.240Z,92684.00
2024-03-27T00:43:28.409Z,92682.00
2024-03-27T00:44:28.559Z,92678.00
2024-03-27T00:45:28.697Z,92675.00
2024-03-27T00:46:28.860Z,92673.00
2024-03-27T00:47:29.004Z,92672.00
2024-03-27T00:48:29.218Z,92675.00
2024-03-27T00:49:29.369Z,92673.00
2024-03-27T00:50:29.483Z,92671.00
2024-03-27T00:51:29.653Z,92668.00
2024-03-27T00:52:29.801Z,92665.00
2024-03-27T00:53:30.045Z,92665.00
2024-03-27T00:54:30.156Z,92664.00
2024-03-27T00:55:30.252Z,92665.00
2024-03-27T00:56:30.408Z,92661.00
2024-03-27T00:57:30.579Z,92660.00
2024-03-27T00:58:30.718Z,92664.00
2024-03-27T00:59:30.906Z,92663.00
2024-03-27T01:00:31.060Z,92664.00
2024-03-27T01:01:31.192Z,92662.00
2024-03-27T01:02:31.368Z,92660.00
2024-03-27T01:03:31.524Z,92653.00
2024-03-27T01:04:31.666Z,92649.00
2024-03-27T01:05:31.839Z,92647.00
2024-03-27T01:06:31.984Z,92645.00
2024-03-27T01:07:32.138Z,92641.00
2024-03-27T01:08:32.279Z,92643.00
2024-03-27T01:09:32.410Z,92643.00
2024-03-27T01:10:32.568Z,92641.00
2024-03-27T01:11:32.706Z,92642.00
2024-03-27T01:12:32.850Z,92644.00
2024-03-27T01:13:33.023Z,92643.00
2024-03-27T01:14:33.114Z,92643.00
2024-03-27T01:15:33.246Z,92640.00
2024-03-27T01:16:33.392Z,92641.00
2024-03-27T01:17:33.583Z,92639.00
2024-03-27T01:18:33.706Z,92641.00
2024-03-27T01:19:33.827Z,92637.00
2024-03-27T01:20:33.940Z,92636.00
2024-03-27T01:21:34.078Z,92634.00
2024-03-27T01:22:34.237Z,92635.00
2024-03-27T01:23:34.397Z,92632.00
2024-03-27T01:24:34.556Z,92633.00
2024-03-27T01:25:34.590Z,92632.00
2024-03-27T01:26:34.663Z,92635.00
2024-03-27T01:27:34.723Z,92632.00
2024-03-27T01:28:34.850Z,92635.00
2024-03-27T01:29:34.893Z,92631.00
2024-03-27T01:30:34.956Z,92631.00
2024-03-27T01:31:35.124Z,92633.00
2024-03-27T01:32:35.267Z,92635.00
2024-03-27T01:33:35.475Z,92636.00
2024-03-27T01:34:35.560Z,92641.00
2024-03-27T01:35:35.700Z,92641.00
2024-03-27T01:36:35.827Z,92639.00
2024-03-27T01:37:35.957Z,92640.00
2024-03-27T01:38:36.096Z,92637.00
2024-03-27T01:39:36.254Z,92634.00
2024-03-27T01:40:36.396Z,92632.00
2024-03-27T01:41:36.532Z,92629.00
2024-03-27T01:42:36.667Z,92623.00
2024-03-27T01:43:36.816Z,92619.00
2024-03-27T01:44:36.954Z,92617.00
2024-03-27T01:45:37.103Z,92614.00
2024-03-27T01:46:37.219Z,92613.00
2024-03-27T01:47:37.372Z,92614.00
2024-03-27T01:48:37.509Z,92609.00
2024-03-27T01:49:37.705Z,92612.00
2024-03-27T01:50:37.802Z,92611.00
2024-03-27T01:51:37.935Z,92610.00
2024-03-27T01:52:38.082Z,92602.00
2024-03-27T01:53:38.209Z,92597.00
2024-03-27T01:54:38.367Z,92598.00
2024-03-27T01:55:38.508Z,92591.00
2024-03-27T01:56:38.653Z,92586.00
2024-03-27T01:57:38.814Z,92579.00
2024-03-27T01:58:38.942Z,92572.00
2024-03-27T01:59:39.083Z,92564.00
2024-03-27T02:00:39.246Z,92555.00
2024-03-27T02:01:39.406Z,92554.00
2024-03-27T02:02:39.518Z,92562.00
2024-03-27T02:03:39.707Z,92560.00
2024-03-27T02:04:39.842Z,92559.00
2024-03-27T02:05:39.985Z,92549.00
2024-03-27T02:06:40.117Z,92533.00
2024-03-27T02:07:40.269Z,92530.00
2024-03-27T02:08:40.421Z,92516.00
2024-03-27T02:09:40.583Z,92493.00
2024-03-27T02:10:40.785Z,92482.00
2024-03-27T02:11:40.891Z,92495.00
2024-03-27T02:12:41.042Z,92502.00
2024-03-27T02:13:43.832Z,92515.00
2024-03-27T02:14:41.237Z,92527.00
2024-03-27T02:15:41.190Z,92524.00
2024-03-27T02:16:41.188Z,92521.00
2024-03-27T02:17:41.183Z,92536.00
2024-03-27T02:18:41.220Z,92531.00
2024-03-27T02:19:41.209Z,92517.00
2024-03-27T02:20:41.216Z,92534.00
2024-03-27T02:21:41.201Z,92515.00
2024-03-27T02:22:41.198Z,92515.00
2024-03-27T02:23:41.231Z,92541.00
2024-03-27T02:24:41.221Z,92522.00
2024-03-27T02:25:41.208Z,92522.00
2024-03-27T02:26:41.217Z,92535.00
2024-03-27T02:27:41.186Z,92517.00
2024-03-27T02:28:41.237Z,92542.00
2024-03-27T02:29:41.196Z,92545.00
2024-03-27T02:30:41.208Z,92540.00
2024-03-27T02:31:41.205Z,92522.00
2024-03-27T02:32:41.213Z,92520.00
2024-03-27T02:33:41.208Z,92515.00
2024-03-27T02:34:41.203Z,92528.00
2024-03-27T02:35:41.219Z,92530.00
2024-03-27T02:36:41.225Z,92536.00
2024-03-27T02:37:41.238Z,92543.00
2024-03-27T02:38:41.205Z,92542.00
2024-03-27T02:39:41.264Z,92537.00
2024-03-27T02:40:41.204Z,92543.00
2024-03-27T02:41:41.206Z,92539.00
2024-03-27T02:42:41.221Z,92537.00
2024-03-27T02:43:41.240Z,92535.00
2024-03-27T02:44:41.235Z,92536.00
2024-03-27T02:45:41.246Z,92520.00
2024-03-27T02:46:41.246Z,92520.00
2024-03-27T02:47:41.244Z,92517.00
2024-03-27T02:48:41.261Z,92528.00
2024-03-27T02:49:41.272Z,92526.00
2024-03-27T02:50:41.242Z,92536.00
2024-03-27T02:51:41.242Z,92529.00
2024-03-27T02:52:41.218Z,92531.00
2024-03-27T02:53:41.229Z,92533.00
2024-03-27T02:54:41.245Z,92525.00
2024-03-27T02:55:41.231Z,92513.00
2024-03-27T02:56:41.260Z,92503.00
2024-03-27T02:57:41.251Z,92503.00
2024-03-27T02:58:41.218Z,92517.00
2024-03-27T02:59:41.257Z,92508.00
2024-03-27T03:00:41.406Z,92513.00
2024-03-27T03:01:41.236Z,92521.00
2024-03-27T03:02:41.247Z,92521.00
2024-03-27T03:03:41.254Z,92527.00
2024-03-27T03:04:41.292Z,92527.00
2024-03-27T03:05:41.368Z,92525.00
2024-03-27T03:06:41.522Z,92515.00
2024-03-27T03:07:41.674Z,92519.00
2024-03-27T03:08:41.819Z,92518.00
2024-03-27T03:09:41.955Z,92516.00
2024-03-27T03:10:42.154Z,92514.00
2024-03-27T03:11:42.240Z,92531.00
2024-03-27T03:12:42.392Z,92532.00
2024-03-27T03:13:42.535Z,92532.00
2024-03-27T03:14:42.696Z,92529.00
2024-03-27T03:15:42.864Z,92522.00
2024-03-27T03:16:42.988Z,92510.00
2024-03-27T03:17:43.145Z,92510.00
2024-03-27T03:18:43.304Z,92510.00
2024-03-27T03:19:43.443Z,92508.00
2024-03-27T03:20:43.587Z,92502.00
2024-03-27T03:21:43.699Z,92496.00
2024-03-27T03:23:32.585Z,92501.00
2024-03-27T03:24:32.559Z,92498.00
2024-03-27T03:25:32.558Z,92498.00
2024-03-27T03:26:32.578Z,92498.00
2024-03-27T03:27:32.622Z,92508.00
2024-03-27T03:28:32.564Z,92510.00
2024-03-27T03:29:32.570Z,92506.00
2024-03-27T03:30:32.563Z,92510.00
2024-03-27T03:31:32.546Z,92515.00
2024-03-27T03:32:32.591Z,92508.00
2024-03-27T03:33:32.597Z,92505.00
2024-03-27T03:34:32.566Z,92504.00
2024-03-27T03:35:32.593Z,92512.00
2024-03-27T03:36:32.610Z,92519.00
2024-03-27T03:37:32.609Z,92510.00
2024-03-27T03:38:32.588Z,92507.00
2024-03-27T03:39:32.612Z,92510.00
2024-03-27T03:40:32.592Z,92507.00
2024-03-27T03:41:32.570Z,92505.00
2024-03-27T03:42:32.602Z,92510.00
2024-03-27T03:43:32.590Z,92516.00
2024-03-27T03:44:32.631Z,92522.00
2024-03-27T03:45:32.632Z,92529.00
2024-03-27T03:46:32.605Z,92529.00
2024-03-27T03:47:32.663Z,92521.00
2024-03-27T03:48:32.651Z,92500.00
2024-03-27T03:49:32.660Z,92491.00
2024-03-27T03:50:32.652Z,92483.00
2024-03-27T03:51:32.660Z,92485.00
2024-03-27T03:52:32.617Z,92498.00
2024-03-27T03:53:32.609Z,92501.00
2024-03-27T03:54:32.672Z,92504.00
2024-03-27T03:55:32.626Z,92509.00
2024-03-27T03:56:32.650Z,92499.00
2024-03-27T03:57:32.699Z,92498.00
2024-03-27T03:58:54.734Z,92500.00
2024-03-27T03:59:54.753Z,92492.00
2024-03-27T04:00:54.753Z,92484.00
2024-03-27T04:01:54.757Z,92492.00
2024-03-27T04:02:54.729Z,92494.00
2024-03-27T04:03:54.731Z,92483.00
2024-03-27T04:04:54.751Z,92482.00
2024-03-27T04:05:54.747Z,92466.00
2024-03-27T04:06:54.727Z,92450.00
2024-03-27T04:07:54.759Z,92456.00
2024-03-27T04:08:54.736Z,92458.00
2024-03-27T04:09:54.769Z,92467.00
2024-03-27T04:10:54.765Z,92465.00
2024-03-27T04:11:54.771Z,92460.00
2024-03-27T04:12:54.751Z,92451.00
2024-03-27T04:13:54.760Z,92444.00
2024-03-27T04:14:54.747Z,92450.00
2024-03-27T04:15:54.753Z,92452.00
2024-03-27T04:16:54.786Z,92457.00
2024-03-27T04:17:54.804Z,92461.00
2024-03-27T04:18:54.798Z,92454.00
2024-03-27T04:19:54.788Z,92435.00
2024-03-27T04:20:54.780Z,92431.00
2024-03-27T04:21:54.791Z,92434.00
2024-03-27T04:22:54.803Z,92436.00
2024-03-27T04:23:54.796Z,92441.00
2024-03-27T04:24:54.811Z,92443.00
2024-03-27T04:26:05.525Z,92440.00
2024-03-27T04:26:55.788Z,92428.00
2024-03-27T04:27:54.791Z,92413.00
2024-03-27T04:28:54.803Z,92416.00
2024-03-27T04:29:54.854Z,92423.00
2024-03-27T04:30:54.944Z,92422.00
2024-03-27T04:32:02.297Z,92424.00
2024-03-27T04:33:02.351Z,92422.00
2024-03-27T04:34:02.296Z,92420.00
2024-03-27T04:35:02.305Z,92415.00
2024-03-27T04:36:03.119Z,92422.00
2024-03-27T04:37:02.300Z,92421.00
2024-03-27T04:38:02.303Z,92415.00
2024-03-27T04:39:02.311Z,92410.00
2024-03-27T04:40:02.310Z,92404.00
2024-03-27T04:41:02.294Z,92396.00
2024-03-27T04:42:02.344Z,92394.00
2024-03-27T04:43:02.309Z,92405.00
2024-03-27T04:44:02.326Z,92415.00
2024-03-27T04:45:02.368Z,92401.00
2024-03-27T04:46:02.363Z,92400.00
2024-03-27T04:47:02.319Z,92394.00
2024-03-27T04:48:02.353Z,92391.00
2024-03-27T04:49:02.335Z,92388.00
2024-03-27T04:50:02.345Z,92393.00
2024-03-27T04:51:02.337Z,92376.00
2024-03-27T04:52:02.335Z,92381.00
2024-03-27T04:53:02.328Z,92367.00
2024-03-27T04:54:02.325Z,92370.00
2024-03-27T04:55:02.377Z,92375.00
2024-03-27T04:56:02.342Z,92374.00
2024-03-27T04:57:02.347Z,92362.00
2024-03-27T04:58:02.349Z,92357.00
2024-03-27T04:59:02.353Z,92362.00
2024-03-27T05:00:02.436Z,92369.00
2024-03-27T05:01:02.347Z,92374.00
2024-03-27T05:02:02.348Z,92377.00
2024-03-27T05:03:02.342Z,92375.00
2024-03-27T05:04:02.488Z,92375.00
2024-03-27T05:05:02.665Z,92377.00
2024-03-27T05:06:02.812Z,92367.00
2024-03-27T05:07:02.939Z,92364.00
2024-03-27T05:08:03.103Z,92358.00
2024-03-27T05:09:03.255Z,92358.00
2024-03-27T05:10:03.432Z,92342.00
2024-03-27T05:11:03.590Z,92331.00
2024-03-27T05:12:03.739Z,92339.00
2024-03-27T05:13:03.935Z,92338.00
2024-03-27T05:14:04.076Z,92332.00
2024-03-27T05:15:04.229Z,92335.00
2024-03-27T05:16:04.354Z,92333.00
2024-03-27T05:17:04.536Z,92327.00
2024-03-27T05:18:04.651Z,92329.00
2024-03-27T05:19:04.867Z,92342.00
2024-03-27T05:20:05.001Z,92336.00
2024-03-27T05:21:05.166Z,92337.00
2024-03-27T05:22:05.296Z,92333.00
2024-03-27T05:23:05.456Z,92330.00
2024-03-27T05:24:05.638Z,92328.00
2024-03-27T05:25:05.771Z,92314.00
2024-03-27T05:26:05.943Z,92308.00
2024-03-27T05:27:06.106Z,92311.00
2024-03-27T05:28:06.258Z,92320.00
2024-03-27T05:29:06.423Z,92321.00
2024-03-27T05:30:06.579Z,92310.00
2024-03-27T05:31:06.714Z,92303.00
2024-03-27T05:32:06.876Z,92296.00
2024-03-27T05:33:07.031Z,92307.00
2024-03-27T05:34:07.200Z,92340.00
2024-03-27T05:35:07.344Z,92359.00
2024-03-27T05:36:17.111Z,92352.00
2024-03-27T05:37:08.532Z,92338.00
2024-03-27T05:38:07.537Z,92316.00
2024-03-27T05:39:07.554Z,92311.00
2024-03-27T05:40:07.552Z,92306.00
2024-03-27T05:41:07.538Z,92302.00
2024-03-27T05:42:08.196Z,92290.00
2024-03-27T05:43:07.549Z,92275.00
2024-03-27T05:44:07.543Z,92277.00
2024-03-27T05:45:07.516Z,92273.00
2024-03-27T05:46:07.520Z,92276.00
2024-03-27T05:47:07.528Z,92292.00
2024-03-27T05:48:07.543Z,92301.00
2024-03-27T05:49:07.596Z,92291.00
2024-03-27T05:50:07.558Z,92289.00
2024-03-27T05:51:07.540Z,92280.00
2024-03-27T05:52:07.728Z,92292.00
2024-03-27T05:53:07.854Z,92295.00
2024-03-27T05:54:08.048Z,92302.00
2024-03-27T05:55:08.197Z,92291.00
2024-03-27T05:56:08.342Z,92283.00
2024-03-27T05:57:08.500Z,92277.00
2024-03-27T05:58:08.698Z,92287.00
2024-03-27T05:59:08.839Z,92294.00
2024-03-27T06:00:08.987Z,92285.00
2024-03-27T06:01:09.152Z,92291.00
2024-03-27T06:02:09.284Z,92298.00
2024-03-27T06:03:09.450Z,92300.00
2024-03-27T06:04:09.589Z,92297.00
2024-03-27T06:05:09.772Z,92293.00
2024-03-27T06:06:09.914Z,92295.00
2024-03-27T06:07:10.158Z,92298.00
2024-03-27T06:08:10.239Z,92296.00
2024-03-27T06:09:10.363Z,92301.00
2024-03-27T06:10:10.629Z,92320.00
2024-03-27T06:11:10.711Z,92331.00
2024-03-27T06:12:10.841Z,92306.00
2024-03-27T06:13:10.990Z,92297.00
2024-03-27T06:14:11.168Z,92317.00
2024-03-27T06:15:11.318Z,92337.00
2024-03-27T06:16:11.521Z,92331.00
2024-03-27T06:17:11.628Z,92299.00
2024-03-27T06:18:11.781Z,92313.00
2024-03-27T06:19:11.911Z,92321.00
2024-03-27T06:20:12.095Z,92302.00
2024-03-27T06:21:12.222Z,92290.00
2024-03-27T06:22:12.392Z,92301.00
2024-03-27T06:23:12.550Z,92304.00
2024-03-27T06:24:12.700Z,92285.00
2024-03-27T06:25:12.872Z,92305.00
2024-03-27T06:26:12.956Z,92287.00
2024-03-27T06:27:13.123Z,92289.00
2024-03-27T06:28:13.287Z,92299.00
2024-03-27T06:29:13.430Z,92293.00
2024-03-27T06:30:13.601Z,92287.00
2024-03-27T06:31:13.768Z,92312.00
2024-03-27T06:32:13.921Z,92272.00
2024-03-27T06:33:14.029Z,92264.00
2024-03-27T06:34:14.203Z,92282.00
2024-03-27T06:35:14.363Z,92262.00
2024-03-27T06:36:14.510Z,92248.00
2024-03-27T06:37:14.670Z,92261.00
2024-03-27T06:38:14.829Z,92249.00
2024-03-27T06:39:14.944Z,92242.00
2024-03-27T06:40:15.130Z,92262.00
2024-03-27T06:41:15.274Z,92242.00
2024-03-27T06:42:15.423Z,92243.00
2024-03-27T06:43:15.572Z,92255.00
2024-03-27T06:44:15.729Z,92282.00
2024-03-27T06:45:21.768Z,92255.00
2024-03-27T06:46:16.900Z,92257.00
2024-03-27T06:47:15.878Z,92260.00
2024-03-27T06:48:15.871Z,92243.00
2024-03-27T06:49:15.923Z,92250.00
2024-03-27T06:50:15.906Z,92241.00
2024-03-27T06:51:15.892Z,92249.00
2024-03-27T06:52:15.893Z,92256.00
2024-03-27T06:53:15.906Z,92260.00
2024-03-27T06:54:15.908Z,92262.00
2024-03-27T06:55:15.904Z,92265.00
2024-03-27T06:56:15.895Z,92261.00
2024-03-27T06:57:15.923Z,92250.00
2024-03-27T06:58:15.907Z,92261.00
2024-03-27T06:59:15.914Z,92289.00
2024-03-27T07:00:15.920Z,92227.00
2024-03-27T07:01:23.431Z,92252.00
2024-03-27T07:02:16.928Z,92238.00
2024-03-27T07:03:15.905Z,92236.00
2024-03-27T07:04:15.916Z,92222.00
2024-03-27T07:05:15.962Z,92239.00
2024-03-27T07:06:15.907Z,92218.00
2024-03-27T07:07:15.922Z,92233.00
2024-03-27T07:08:15.925Z,92207.00
2024-03-27T07:09:15.960Z,92208.00
2024-03-27T07:10:15.934Z,92225.00
2024-03-27T07:11:15.925Z,92220.00
2024-03-27T07:12:16.045Z,92210.00
2024-03-27T07:13:16.103Z,92228.00
2024-03-27T07:14:16.165Z,92226.00
2024-03-27T07:15:16.274Z,92218.00
2024-03-27T07:16:16.380Z,92221.00
2024-03-27T07:17:16.516Z,92205.00
2024-03-27T07:18:16.637Z,92220.00
2024-03-27T07:19:16.732Z,92222.00
2024-03-27T07:20:16.832Z,92197.00
2024-03-27T07:21:16.936Z,92195.00
2024-03-27T07:22:17.030Z,92202.00
2024-03-27T07:23:17.116Z,92202.00
2024-03-27T07:24:17.183Z,92208.00
2024-03-27T07:25:19.427Z,92210.00
2024-03-27T07:26:17.294Z,92203.00
2024-03-27T07:27:17.291Z,92198.00
2024-03-27T07:28:17.319Z,92193.00
2024-03-27T07:29:17.289Z,92174.00
2024-03-27T07:30:17.294Z,92198.00
2024-03-27T07:31:17.346Z,92193.00
2024-03-27T07:32:17.295Z,92201.00
2024-03-27T07:33:17.287Z,92207.00
2024-03-27T07:34:17.292Z,92199.00
2024-03-27T07:35:17.295Z,92186.00
2024-03-27T07:36:17.306Z,92206.00
2024-03-27T07:37:17.319Z,92203.00
2024-03-27T07:38:17.299Z,92218.00
2024-03-27T07:39:17.304Z,92212.00
2024-03-27T07:40:17.314Z,92200.00
2024-03-27T07:41:17.302Z,92214.00
2024-03-27T07:42:17.315Z,92198.00
2024-03-27T07:43:17.289Z,92185.00
2024-03-27T07:44:17.323Z,92214.00
2024-03-27T07:45:17.303Z,92205.00
2024-03-27T07:46:17.325Z,92188.00
2024-03-27T07:47:17.315Z,92175.00
2024-03-27T07:48:17.329Z,92174.00
2024-03-27T07:49:17.318Z,92200.00
2024-03-27T07:50:17.315Z,92181.00
2024-03-27T07:51:17.295Z,92193.00
2024-03-27T07:52:17.317Z,92190.00
2024-03-27T07:53:17.400Z,92198.00
2024-03-27T07:54:17.650Z,92174.00
2024-03-27T07:55:17.608Z,92173.00
2024-03-27T07:56:17.726Z,92207.00
2024-03-27T07:57:17.821Z,92197.00
2024-03-27T07:58:17.946Z,92180.00
2024-03-27T07:59:18.068Z,92164.00
2024-03-27T08:00:18.172Z,92175.00
2024-03-27T08:01:18.278Z,92198.00
2024-03-27T08:02:18.377Z,92183.00
2024-03-27T08:03:18.497Z,92198.00
2024-03-27T08:04:18.594Z,92154.00
2024-03-27T08:05:18.737Z,92187.00
2024-03-27T08:06:18.878Z,92189.00
2024-03-27T08:07:18.936Z,92174.00
2024-03-27T08:08:19.071Z,92178.00
2024-03-27T08:09:19.142Z,92185.00
2024-03-27T08:10:19.288Z,92207.00
2024-03-27T08:11:19.369Z,92215.00
2024-03-27T08:12:19.486Z,92184.00
2024-03-27T08:13:19.604Z,92189.00
2024-03-27T08:14:19.723Z,92204.00
2024-03-27T08:15:19.850Z,92186.00
2024-03-27T08:16:19.927Z,92199.00
2024-03-27T08:17:20.110Z,92197.00
2024-03-27T08:18:20.130Z,92201.00
2024-03-27T08:19:20.251Z,92219.00
2024-03-27T08:20:20.367Z,92221.00
2024-03-27T08:21:20.484Z,92199.00
2024-03-27T08:22:20.601Z,92213.00
2024-03-27T08:23:20.703Z,92219.00
2024-03-27T08:24:20.822Z,92243.00
2024-03-27T08:25:20.968Z,92178.00
2024-03-27T08:26:21.051Z,92222.00
2024-03-27T08:27:21.165Z,92207.00
2024-03-27T08:28:21.275Z,92216.00
2024-03-27T08:29:21.409Z,92196.00
2024-03-27T08:30:21.546Z,92203.00
2024-03-27T08:31:21.603Z,92179.00
2024-03-27T08:32:21.746Z,92197.00
2024-03-27T08:33:21.917Z,92190.00
2024-03-27T08:34:27.557Z,92191.00
2024-03-27T08:35:23.008Z,92194.00
2024-03-27T08:36:30.526Z,92194.00
2024-03-27T08:37:23.001Z,92170.00
2024-03-27T08:38:21.981Z,92190.00
2024-03-27T08:39:21.999Z,92192.00
2024-03-27T08:40:22.001Z,92188.00
2024-03-27T08:41:22.024Z,92202.00
2024-03-27T08:42:22.033Z,92192.00
2024-03-27T08:43:22.035Z,92196.00
2024-03-27T08:44:22.019Z,92211.00
2024-03-27T08:45:22.026Z,92208.00
2024-03-27T08:46:22.117Z,92185.00
2024-03-27T08:47:22.223Z,92204.00
2024-03-27T08:48:22.330Z,92221.00
2024-03-27T08:49:22.454Z,92203.00
2024-03-27T08:50:22.556Z,92231.00
2024-03-27T08:51:22.656Z,92215.00
2024-03-27T08:52:22.764Z,92206.00
2024-03-27T08:53:23.008Z,92206.00
2024-03-27T08:54:22.962Z,92225.00
2024-03-27T08:55:23.095Z,92204.00
2024-03-27T08:56:23.195Z,92216.00
2024-03-27T08:57:23.312Z,92203.00
2024-03-27T08:58:23.423Z,92191.00
2024-03-27T08:59:23.515Z,92229.00
2024-03-27T09:00:24.040Z,92211.00
2024-03-27T09:01:23.703Z,92214.00
2024-03-27T09:02:23.729Z,92206.00
2024-03-27T09:03:23.765Z,92217.00
2024-03-27T09:04:23.815Z,92198.00
2024-03-27T09:05:23.898Z,92198.00
2024-03-27T09:06:23.886Z,92198.00
2024-03-27T09:07:23.942Z,92207.00
2024-03-27T09:08:24.008Z,92199.00
2024-03-27T09:09:24.030Z,92197.00
2024-03-27T09:10:24.093Z,92206.00
2024-03-27T09:11:24.098Z,92168.00
2024-03-27T09:12:24.162Z,92185.00
2024-03-27T09:13:24.237Z,92192.00
2024-03-27T09:14:24.252Z,92203.00
2024-03-27T09:15:24.365Z,92198.00
2024-03-27T09:16:24.467Z,92199.00
2024-03-27T09:17:24.555Z,92196.00
2024-03-27T09:18:24.656Z,92186.00
2024-03-27T09:19:24.763Z,92201.00
2024-03-27T09:20:24.843Z,92192.00
2024-03-27T09:21:24.958Z,92194.00
2024-03-27T09:22:25.069Z,92173.00
2024-03-27T09:23:25.162Z,92183.00
2024-03-27T09:24:25.237Z,92193.00
2024-03-27T09:25:25.356Z,92201.00
2024-03-27T09:26:25.424Z,92190.00
2024-03-27T09:27:25.536Z,92182.00
2024-03-27T09:28:25.669Z,92213.00
2024-03-27T09:29:25.726Z,92191.00
2024-03-27T09:30:25.822Z,92186.00
2024-03-27T09:31:25.905Z,92180.00
2024-03-27T09:32:25.985Z,92206.00
2024-03-27T09:33:26.081Z,92185.00
2024-03-27T09:34:26.185Z,92191.00
2024-03-27T09:35:26.266Z,92200.00
2024-03-27T09:36:26.334Z,92202.00
2024-03-27T09:37:26.434Z,92198.00
2024-03-27T09:38:27.915Z,92196.00
2024-03-27T09:39:26.563Z,92187.00
2024-03-27T09:40:26.628Z,92191.00
2024-03-27T09:41:26.637Z,92188.00
2024-03-27T09:42:26.710Z,92181.00
2024-03-27T09:43:26.679Z,92184.00
2024-03-27T09:44:26.731Z,92181.00
2024-03-27T09:45:26.764Z,92176.00
2024-03-27T09:46:26.827Z,92171.00
2024-03-27T09:47:26.866Z,92171.00
2024-03-27T09:48:26.897Z,92181.00
2024-03-27T09:49:26.920Z,92180.00
2024-03-27T09:50:26.981Z,92164.00
2024-03-27T09:51:26.984Z,92152.00
2024-03-27T09:52:27.004Z,92160.00
2024-03-27T09:53:27.035Z,92166.00
2024-03-27T09:54:27.108Z,92155.00
2024-03-27T09:55:27.161Z,92139.00
2024-03-27T09:56:27.243Z,92138.00
2024-03-27T09:57:27.332Z,92144.00
2024-03-27T09:58:27.390Z,92136.00
2024-03-27T09:59:27.483Z,92134.00
2024-03-27T10:00:27.544Z,92142.00
2024-03-27T10:01:38.127Z,92122.00
2024-03-27T10:02:28.641Z,92135.00
2024-03-27T10:03:27.628Z,92133.00
2024-03-27T10:04:27.635Z,92118.00
2024-03-27T10:05:27.641Z,92128.00
2024-03-27T10:06:27.634Z,92128.00
2024-03-27T10:07:27.651Z,92123.00
2024-03-27T10:08:27.640Z,92125.00
2024-03-27T10:09:27.639Z,92137.00
2024-03-27T10:10:27.658Z,92136.00
2024-03-27T10:11:27.664Z,92121.00
2024-03-27T10:12:27.659Z,92122.00
2024-03-27T10:13:27.658Z,92122.00
2024-03-27T10:14:27.667Z,92123.00
2024-03-27T10:15:27.653Z,92121.00
2024-03-27T10:16:27.661Z,92095.00
2024-03-27T10:17:27.692Z,92112.00
2024-03-27T10:18:27.713Z,92118.00
2024-03-27T10:19:27.793Z,92122.00
2024-03-27T10:20:27.857Z,92111.00
2024-03-27T10:21:27.914Z,92119.00
2024-03-27T10:22:27.999Z,92106.00
2024-03-27T10:23:28.072Z,92122.00
2024-03-27T10:24:28.122Z,92080.00
2024-03-27T10:25:28.219Z,92082.00
2024-03-27T10:26:28.293Z,92068.00
2024-03-27T10:27:28.361Z,92101.00
2024-03-27T10:28:28.426Z,92095.00
2024-03-27T10:29:28.492Z,92094.00
2024-03-27T10:30:28.588Z,92083.00
2024-03-27T10:31:28.629Z,92081.00
2024-03-27T10:32:28.736Z,92073.00
2024-03-27T10:33:28.804Z,92090.00
2024-03-27T10:34:28.853Z,92101.00
2024-03-27T10:35:28.944Z,92101.00
2024-03-27T10:36:29.020Z,92101.00
2024-03-27T10:37:29.104Z,92091.00
2024-03-27T10:38:29.191Z,92077.00
2024-03-27T10:39:29.258Z,92055.00
2024-03-27T10:40:29.331Z,92059.00
2024-03-27T10:41:29.396Z,92097.00
2024-03-27T10:42:29.498Z,92082.00
2024-03-27T10:43:29.544Z,92081.00
2024-03-27T10:44:29.637Z,92086.00
2024-03-27T10:45:29.734Z,92071.00
2024-03-27T10:46:29.821Z,92070.00
2024-03-27T10:47:29.962Z,92073.00
2024-03-27T10:48:29.942Z,92075.00
2024-03-27T10:49:30.002Z,92079.00
2024-03-27T10:50:30.182Z,92081.00
2024-03-27T10:51:30.270Z,92107.00
2024-03-27T10:52:30.345Z,92129.00
2024-03-27T10:53:30.415Z,92093.00
2024-03-27T10:54:30.480Z,92094.00
2024-03-27T10:55:30.556Z,92084.00
2024-03-27T10:56:30.649Z,92076.00
2024-03-27T10:57:30.734Z,92078.00
2024-03-27T10:58:30.821Z,92073.00
2024-03-27T10:59:30.887Z,92055.00
2024-03-27T11:00:30.982Z,92091.00
2024-03-27T11:01:31.118Z,92087.00
2024-03-27T11:02:31.106Z,92104.00
2024-03-27T11:03:31.231Z,92112.00
2024-03-27T11:04:31.303Z,92106.00
2024-03-27T11:05:31.388Z,92113.00
2024-03-27T11:06:31.439Z,92095.00
2024-03-27T11:07:31.533Z,92083.00
2024-03-27T11:08:31.615Z,92087.00
2024-03-27T11:09:31.672Z,92095.00
2024-03-27T11:10:31.795Z,92109.00
2024-03-27T11:11:33.923Z,92116.00
2024-03-27T11:12:31.867Z,92096.00
2024-03-27T11:13:31.898Z,92101.00
2024-03-27T11:14:31.916Z,92094.00
2024-03-27T11:15:31.952Z,92080.00
2024-03-27T11:16:32.064Z,92073.00
2024-03-27T11:17:32.120Z,92104.00
2024-03-27T11:18:32.225Z,92106.00
2024-03-27T11:19:32.308Z,92105.00
2024-03-27T11:20:32.377Z,92101.00
2024-03-27T11:21:32.473Z,92102.00
2024-03-27T11:22:32.588Z,92093.00
2024-03-27T11:23:32.651Z,92101.00
2024-03-27T11:24:32.762Z,92094.00
2024-03-27T11:25:32.843Z,92071.00
2024-03-27T11:26:32.888Z,92087.00
2024-03-27T11:27:33.122Z,92082.00
2024-03-27T11:28:33.127Z,92095.00
2024-03-27T11:29:33.201Z,92093.00
2024-03-27T11:30:35.031Z,92079.00
2024-03-27T11:31:33.300Z,92104.00
2024-03-27T11:32:33.363Z,92108.00
2024-03-27T11:33:33.379Z,92067.00
2024-03-27T11:34:33.412Z,92083.00
2024-03-27T11:35:33.443Z,92081.00
2024-03-27T11:36:33.461Z,92086.00
2024-03-27T11:37:33.478Z,92091.00
2024-03-27T11:38:33.560Z,92082.00
2024-03-27T11:39:33.633Z,92081.00
2024-03-27T11:40:33.733Z,92080.00
2024-03-27T11:41:36.096Z,92091.00
2024-03-27T11:42:33.822Z,92067.00
2024-03-27T11:43:33.816Z,92072.00
2024-03-27T11:44:33.818Z,92077.00
2024-03-27T11:45:33.827Z,92065.00
2024-03-27T11:46:33.829Z,92082.00